sensor_id;sensor_type;location;lat;lon;timestamp;P1;durP1;ratioP1;P2;durP2;ratioP2
40116;SDS011;25829;50.228;18.936;2022-10-04T00:00:44;9.07;;;3.85;;
40116;SDS011;25829;50.228;18.936;2022-10-04T00:03:46;6.43;;;3.88;;
40116;SDS011;25829;50.228;18.936;2022-10-04T00:10:15;7.85;;;3.80;;
40116;SDS011;25829;50.228;18.936;2022-10-04T00:13:23;5.13;;;3.42;;
40116;SDS011;25829;50.228;18.936;2022-10-04T00:16:29;5.85;;;3.50;;
40116;SDS011;25829;50.228;18.936;2022-10-04T00:19:38;9.38;;;3.33;;
40116;SDS011;25829;50.228;18.936;2022-10-04T00:22:42;6.97;;;3.17;;
40116;SDS011;25829;50.228;18.936;2022-10-04T00:38:43;3.38;;;2.88;;
40116;SDS011;25829;50.228;18.936;2022-10-04T00:46:00;8.35;;;3.35;;
40116;SDS011;25829;50.228;18.936;2022-10-04T00:49:05;7.85;;;3.30;;
40116;SDS011;25829;50.228;18.936;2022-10-04T00:52:12;5.60;;;3.20;;
40116;SDS011;25829;50.228;18.936;2022-10-04T00:59:09;5.88;;;2.92;;
40116;SDS011;25829;50.228;18.936;2022-10-04T01:05:23;7.18;;;2.60;;
40116;SDS011;25829;50.228;18.936;2022-10-04T01:08:33;6.65;;;3.25;;
40116;SDS011;25829;50.228;18.936;2022-10-04T01:11:46;5.82;;;3.10;;
40116;SDS011;25829;50.228;18.936;2022-10-04T01:15:02;5.70;;;3.13;;
40116;SDS011;25829;50.228;18.936;2022-10-04T01:18:08;4.35;;;2.53;;
40116;SDS011;25829;50.228;18.936;2022-10-04T01:24:16;6.45;;;2.72;;
40116;SDS011;25829;50.228;18.936;2022-10-04T01:30:35;4.95;;;2.67;;
40116;SDS011;25829;50.228;18.936;2022-10-04T01:33:36;7.40;;;2.72;;
40116;SDS011;25829;50.228;18.936;2022-10-04T01:36:37;5.93;;;2.03;;
40116;SDS011;25829;50.228;18.936;2022-10-04T01:39:37;8.00;;;2.45;;
40116;SDS011;25829;50.228;18.936;2022-10-04T01:42:40;5.88;;;2.75;;
40116;SDS011;25829;50.228;18.936;2022-10-04T01:45:50;9.13;;;2.42;;
40116;SDS011;25829;50.228;18.936;2022-10-04T01:48:55;9.70;;;2.80;;
40116;SDS011;25829;50.228;18.936;2022-10-04T01:52:01;9.23;;;3.45;;
40116;SDS011;25829;50.228;18.936;2022-10-04T01:55:10;5.05;;;2.80;;
40116;SDS011;25829;50.228;18.936;2022-10-04T01:58:30;7.28;;;2.75;;
40116;SDS011;25829;50.228;18.936;2022-10-04T02:04:51;5.88;;;2.80;;
40116;SDS011;25829;50.228;18.936;2022-10-04T02:07:55;7.30;;;2.85;;
40116;SDS011;25829;50.228;18.936;2022-10-04T02:10:57;7.90;;;3.53;;
40116;SDS011;25829;50.228;18.936;2022-10-04T02:14:00;8.50;;;3.08;;
40116;SDS011;25829;50.228;18.936;2022-10-04T02:17:04;8.73;;;2.63;;
40116;SDS011;25829;50.228;18.936;2022-10-04T02:20:16;5.72;;;2.33;;
40116;SDS011;25829;50.228;18.936;2022-10-04T02:23:21;8.43;;;2.63;;
40116;SDS011;25829;50.228;18.936;2022-10-04T02:26:23;5.85;;;2.45;;
40116;SDS011;25829;50.228;18.936;2022-10-04T02:29:24;4.22;;;2.88;;
40116;SDS011;25829;50.228;18.936;2022-10-04T02:32:28;5.95;;;3.03;;
40116;SDS011;25829;50.228;18.936;2022-10-04T02:35:48;5.72;;;2.88;;
40116;SDS011;25829;50.228;18.936;2022-10-04T02:42:01;8.38;;;2.90;;
40116;SDS011;25829;50.228;18.936;2022-10-04T02:45:15;6.78;;;3.00;;
40116;SDS011;25829;50.228;18.936;2022-10-04T02:49:05;6.13;;;2.92;;
40116;SDS011;25829;50.228;18.936;2022-10-04T02:51:49;5.55;;;2.90;;
40116;SDS011;25829;50.228;18.936;2022-10-04T02:54:56;5.32;;;2.90;;
40116;SDS011;25829;50.228;18.936;2022-10-04T02:58:00;8.90;;;3.97;;
40116;SDS011;25829;50.228;18.936;2022-10-04T03:01:01;7.82;;;3.38;;
40116;SDS011;25829;50.228;18.936;2022-10-04T03:04:02;9.38;;;3.42;;
40116;SDS011;25829;50.228;18.936;2022-10-04T03:07:04;6.35;;;3.13;;
40116;SDS011;25829;50.228;18.936;2022-10-04T03:10:08;6.07;;;2.75;;
40116;SDS011;25829;50.228;18.936;2022-10-04T03:13:11;6.10;;;2.55;;
40116;SDS011;25829;50.228;18.936;2022-10-04T03:16:13;6.32;;;3.15;;
40116;SDS011;25829;50.228;18.936;2022-10-04T03:19:15;7.47;;;3.08;;
40116;SDS011;25829;50.228;18.936;2022-10-04T03:22:18;7.55;;;2.60;;
40116;SDS011;25829;50.228;18.936;2022-10-04T03:25:20;5.43;;;2.15;;
40116;SDS011;25829;50.228;18.936;2022-10-04T03:28:28;5.25;;;2.70;;
40116;SDS011;25829;50.228;18.936;2022-10-04T03:31:40;6.65;;;2.92;;
40116;SDS011;25829;50.228;18.936;2022-10-04T03:35:05;7.38;;;3.05;;
40116;SDS011;25829;50.228;18.936;2022-10-04T03:38:07;4.05;;;2.38;;
40116;SDS011;25829;50.228;18.936;2022-10-04T03:41:11;7.07;;;2.63;;
40116;SDS011;25829;50.228;18.936;2022-10-04T03:44:14;6.22;;;2.50;;
40116;SDS011;25829;50.228;18.936;2022-10-04T03:47:24;5.83;;;2.63;;
40116;SDS011;25829;50.228;18.936;2022-10-04T03:50:30;8.60;;;2.70;;
40116;SDS011;25829;50.228;18.936;2022-10-04T03:53:35;9.57;;;2.53;;
40116;SDS011;25829;50.228;18.936;2022-10-04T03:56:42;5.53;;;2.57;;
40116;SDS011;25829;50.228;18.936;2022-10-04T03:59:44;5.30;;;2.70;;
40116;SDS011;25829;50.228;18.936;2022-10-04T04:02:52;5.53;;;2.60;;
40116;SDS011;25829;50.228;18.936;2022-10-04T04:06:00;12.65;;;2.70;;
40116;SDS011;25829;50.228;18.936;2022-10-04T04:09:18;4.75;;;2.53;;
40116;SDS011;25829;50.228;18.936;2022-10-04T04:12:39;6.13;;;2.40;;
40116;SDS011;25829;50.228;18.936;2022-10-04T04:15:43;7.43;;;2.80;;
40116;SDS011;25829;50.228;18.936;2022-10-04T04:18:44;6.73;;;2.33;;
40116;SDS011;25829;50.228;18.936;2022-10-04T04:21:48;6.70;;;2.20;;
40116;SDS011;25829;50.228;18.936;2022-10-04T04:24:50;11.02;;;2.55;;
40116;SDS011;25829;50.228;18.936;2022-10-04T04:27:55;6.57;;;2.13;;
40116;SDS011;25829;50.228;18.936;2022-10-04T04:31:21;6.40;;;2.60;;
40116;SDS011;25829;50.228;18.936;2022-10-04T04:34:26;5.87;;;2.27;;
40116;SDS011;25829;50.228;18.936;2022-10-04T04:37:30;5.00;;;2.10;;
40116;SDS011;25829;50.228;18.936;2022-10-04T04:40:30;6.72;;;2.20;;
40116;SDS011;25829;50.228;18.936;2022-10-04T04:43:33;7.50;;;2.40;;
40116;SDS011;25829;50.228;18.936;2022-10-04T04:46:35;5.77;;;2.10;;
40116;SDS011;25829;50.228;18.936;2022-10-04T04:49:37;5.73;;;2.33;;
40116;SDS011;25829;50.228;18.936;2022-10-04T04:52:39;4.10;;;2.13;;
40116;SDS011;25829;50.228;18.936;2022-10-04T04:55:45;5.73;;;2.20;;
40116;SDS011;25829;50.228;18.936;2022-10-04T04:58:50;4.03;;;2.20;;
40116;SDS011;25829;50.228;18.936;2022-10-04T05:01:53;7.90;;;2.30;;
40116;SDS011;25829;50.228;18.936;2022-10-04T05:11:21;3.73;;;2.10;;
40116;SDS011;25829;50.228;18.936;2022-10-04T05:14:27;7.23;;;2.20;;
40116;SDS011;25829;50.228;18.936;2022-10-04T05:17:32;5.97;;;2.30;;
40116;SDS011;25829;50.228;18.936;2022-10-04T05:20:34;6.07;;;3.65;;
40116;SDS011;25829;50.228;18.936;2022-10-04T05:23:34;6.57;;;2.40;;
40116;SDS011;25829;50.228;18.936;2022-10-04T05:26:35;6.10;;;2.67;;
40116;SDS011;25829;50.228;18.936;2022-10-04T05:29:37;6.20;;;2.43;;
40116;SDS011;25829;50.228;18.936;2022-10-04T05:33:03;7.57;;;2.43;;
40116;SDS011;25829;50.228;18.936;2022-10-04T05:39:29;5.20;;;2.23;;
40116;SDS011;25829;50.228;18.936;2022-10-04T05:42:41;8.70;;;2.70;;
40116;SDS011;25829;50.228;18.936;2022-10-04T05:45:46;8.80;;;2.60;;
40116;SDS011;25829;50.228;18.936;2022-10-04T05:49:07;7.20;;;2.60;;
40116;SDS011;25829;50.228;18.936;2022-10-04T05:52:12;5.37;;;2.90;;
40116;SDS011;25829;50.228;18.936;2022-10-04T05:55:31;5.97;;;3.20;;
40116;SDS011;25829;50.228;18.936;2022-10-04T06:05:49;5.57;;;2.80;;
40116;SDS011;25829;50.228;18.936;2022-10-04T06:22:55;3.75;;;2.30;;
40116;SDS011;25829;50.228;18.936;2022-10-04T06:26:04;4.90;;;2.30;;
40116;SDS011;25829;50.228;18.936;2022-10-04T06:29:10;7.70;;;2.80;;
40116;SDS011;25829;50.228;18.936;2022-10-04T06:39:23;7.50;;;2.60;;
40116;SDS011;25829;50.228;18.936;2022-10-04T06:42:50;6.07;;;2.90;;
40116;SDS011;25829;50.228;18.936;2022-10-04T06:46:36;6.32;;;2.85;;
40116;SDS011;25829;50.228;18.936;2022-10-04T06:49:59;5.95;;;3.05;;
40116;SDS011;25829;50.228;18.936;2022-10-04T07:00:21;4.65;;;2.70;;
40116;SDS011;25829;50.228;18.936;2022-10-04T07:03:28;8.05;;;3.17;;
40116;SDS011;25829;50.228;18.936;2022-10-04T07:06:45;7.15;;;2.70;;
40116;SDS011;25829;50.228;18.936;2022-10-04T07:09:53;5.93;;;2.78;;
40116;SDS011;25829;50.228;18.936;2022-10-04T07:13:09;7.20;;;2.55;;
40116;SDS011;25829;50.228;18.936;2022-10-04T07:22:29;6.88;;;2.60;;
40116;SDS011;25829;50.228;18.936;2022-10-04T07:25:54;3.33;;;1.85;;
40116;SDS011;25829;50.228;18.936;2022-10-04T07:29:02;7.10;;;2.50;;
40116;SDS011;25829;50.228;18.936;2022-10-04T07:32:22;4.32;;;2.15;;
40116;SDS011;25829;50.228;18.936;2022-10-04T07:35:32;7.00;;;2.25;;
40116;SDS011;25829;50.228;18.936;2022-10-04T07:38:47;4.70;;;2.17;;
40116;SDS011;25829;50.228;18.936;2022-10-04T07:41:51;3.33;;;1.98;;
40116;SDS011;25829;50.228;18.936;2022-10-04T07:48:22;5.88;;;2.42;;
40116;SDS011;25829;50.228;18.936;2022-10-04T07:51:38;6.47;;;2.10;;
40116;SDS011;25829;50.228;18.936;2022-10-04T07:54:46;6.10;;;2.17;;
40116;SDS011;25829;50.228;18.936;2022-10-04T08:01:00;4.72;;;2.20;;
40116;SDS011;25829;50.228;18.936;2022-10-04T08:04:13;5.00;;;2.42;;
40116;SDS011;25829;50.228;18.936;2022-10-04T08:13:51;5.43;;;2.00;;
40116;SDS011;25829;50.228;18.936;2022-10-04T08:20:30;3.72;;;1.80;;
40116;SDS011;25829;50.228;18.936;2022-10-04T08:27:06;3.33;;;1.83;;
40116;SDS011;25829;50.228;18.936;2022-10-04T08:30:23;3.28;;;2.10;;
40116;SDS011;25829;50.228;18.936;2022-10-04T08:33:27;5.68;;;1.70;;
40116;SDS011;25829;50.228;18.936;2022-10-04T09:14:05;7.03;;;2.22;;
40116;SDS011;25829;50.228;18.936;2022-10-04T09:17:41;4.68;;;1.92;;
40116;SDS011;25829;50.228;18.936;2022-10-04T09:20:59;5.07;;;2.03;;
40116;SDS011;25829;50.228;18.936;2022-10-04T09:24:17;7.10;;;2.35;;
40116;SDS011;25829;50.228;18.936;2022-10-04T09:27:36;3.30;;;1.70;;
40116;SDS011;25829;50.228;18.936;2022-10-04T09:45:18;3.45;;;1.92;;
40116;SDS011;25829;50.228;18.936;2022-10-04T09:48:29;4.30;;;2.15;;
40116;SDS011;25829;50.228;18.936;2022-10-04T10:26:24;3.28;;;1.80;;
40116;SDS011;25829;50.228;18.936;2022-10-04T10:33:18;4.10;;;1.70;;
40116;SDS011;25829;50.228;18.936;2022-10-04T11:00:18;4.75;;;1.70;;
40116;SDS011;25829;50.228;18.936;2022-10-04T11:04:05;4.45;;;2.10;;
40116;SDS011;25829;50.228;18.936;2022-10-04T11:06:51;4.97;;;2.00;;
40116;SDS011;25829;50.228;18.936;2022-10-04T11:30:45;6.32;;;1.60;;
40116;SDS011;25829;50.228;18.936;2022-10-04T11:48:14;2.58;;;1.30;;
40116;SDS011;25829;50.228;18.936;2022-10-04T12:00:52;3.08;;;1.40;;
40116;SDS011;25829;50.228;18.936;2022-10-04T12:21:22;2.53;;;1.58;;
40116;SDS011;25829;50.228;18.936;2022-10-04T12:24:36;3.13;;;1.58;;
40116;SDS011;25829;50.228;18.936;2022-10-04T12:34:32;3.17;;;1.33;;
40116;SDS011;25829;50.228;18.936;2022-10-04T12:47:42;3.17;;;1.50;;
40116;SDS011;25829;50.228;18.936;2022-10-04T12:50:56;2.22;;;1.67;;
40116;SDS011;25829;50.228;18.936;2022-10-04T13:01:02;3.83;;;1.27;;
40116;SDS011;25829;50.228;18.936;2022-10-04T13:04:46;2.92;;;1.50;;
40116;SDS011;25829;50.228;18.936;2022-10-04T13:20:58;3.22;;;1.52;;
40116;SDS011;25829;50.228;18.936;2022-10-04T13:24:03;2.55;;;1.27;;
40116;SDS011;25829;50.228;18.936;2022-10-04T13:27:39;4.50;;;1.50;;
40116;SDS011;25829;50.228;18.936;2022-10-04T13:34:13;4.07;;;1.50;;
40116;SDS011;25829;50.228;18.936;2022-10-04T13:44:22;4.28;;;2.00;;
40116;SDS011;25829;50.228;18.936;2022-10-04T13:47:55;3.05;;;1.70;;
40116;SDS011;25829;50.228;18.936;2022-10-04T13:51:18;4.28;;;2.10;;
40116;SDS011;25829;50.228;18.936;2022-10-04T13:54:34;4.90;;;1.75;;
40116;SDS011;25829;50.228;18.936;2022-10-04T13:58:12;1.35;;;1.02;;
40116;SDS011;25829;50.228;18.936;2022-10-04T14:48:43;3.67;;;1.80;;
40116;SDS011;25829;50.228;18.936;2022-10-04T15:08:54;2.72;;;1.77;;
40116;SDS011;25829;50.228;18.936;2022-10-04T15:15:48;4.57;;;2.10;;
40116;SDS011;25829;50.228;18.936;2022-10-04T15:22:25;3.65;;;1.90;;
40116;SDS011;25829;50.228;18.936;2022-10-04T15:25:38;3.95;;;2.10;;
40116;SDS011;25829;50.228;18.936;2022-10-04T15:31:51;4.13;;;2.10;;
40116;SDS011;25829;50.228;18.936;2022-10-04T15:35:19;4.05;;;2.00;;
40116;SDS011;25829;50.228;18.936;2022-10-04T15:42:14;3.08;;;2.17;;
40116;SDS011;25829;50.228;18.936;2022-10-04T15:45:22;3.33;;;1.85;;
40116;SDS011;25829;50.228;18.936;2022-10-04T15:55:25;5.53;;;2.30;;
40116;SDS011;25829;50.228;18.936;2022-10-04T16:01:53;4.22;;;2.40;;
40116;SDS011;25829;50.228;18.936;2022-10-04T16:21:09;9.88;;;7.10;;
40116;SDS011;25829;50.228;18.936;2022-10-04T16:24:41;7.72;;;4.82;;
40116;SDS011;25829;50.228;18.936;2022-10-04T16:41:09;16.48;;;11.50;;
40116;SDS011;25829;50.228;18.936;2022-10-04T16:48:44;16.35;;;9.68;;
40116;SDS011;25829;50.228;18.936;2022-10-04T17:01:54;14.73;;;9.98;;
40116;SDS011;25829;50.228;18.936;2022-10-04T17:05:20;26.00;;;22.48;;
40116;SDS011;25829;50.228;18.936;2022-10-04T17:08:46;15.70;;;12.40;;
40116;SDS011;25829;50.228;18.936;2022-10-04T17:12:04;16.10;;;12.75;;
40116;SDS011;25829;50.228;18.936;2022-10-04T17:18:49;18.92;;;12.82;;
40116;SDS011;25829;50.228;18.936;2022-10-04T17:25:28;25.60;;;17.40;;
40116;SDS011;25829;50.228;18.936;2022-10-04T17:28:55;20.05;;;12.77;;
40116;SDS011;25829;50.228;18.936;2022-10-04T17:32:10;10.73;;;6.75;;
40116;SDS011;25829;50.228;18.936;2022-10-04T17:42:24;15.77;;;7.30;;
40116;SDS011;25829;50.228;18.936;2022-10-04T17:53:13;12.33;;;7.53;;
40116;SDS011;25829;50.228;18.936;2022-10-04T17:56:45;14.23;;;7.23;;
40116;SDS011;25829;50.228;18.936;2022-10-04T18:00:05;12.50;;;7.90;;
40116;SDS011;25829;50.228;18.936;2022-10-04T18:03:17;14.30;;;8.67;;
40116;SDS011;25829;50.228;18.936;2022-10-04T18:06:26;13.33;;;8.03;;
40116;SDS011;25829;50.228;18.936;2022-10-04T18:09:46;10.20;;;7.33;;
40116;SDS011;25829;50.228;18.936;2022-10-04T18:12:57;13.47;;;7.03;;
40116;SDS011;25829;50.228;18.936;2022-10-04T18:22:47;9.10;;;6.47;;
40116;SDS011;25829;50.228;18.936;2022-10-04T18:25:59;13.63;;;8.27;;
40116;SDS011;25829;50.228;18.936;2022-10-04T18:29:10;11.67;;;8.13;;
40116;SDS011;25829;50.228;18.936;2022-10-04T18:38:30;6.40;;;5.70;;
40116;SDS011;25829;50.228;18.936;2022-10-04T18:41:33;9.73;;;5.90;;
40116;SDS011;25829;50.228;18.936;2022-10-04T18:47:56;11.60;;;6.50;;
40116;SDS011;25829;50.228;18.936;2022-10-04T18:51:01;8.40;;;5.87;;
40116;SDS011;25829;50.228;18.936;2022-10-04T18:57:41;17.10;;;11.77;;
40116;SDS011;25829;50.228;18.936;2022-10-04T19:05:10;22.93;;;12.20;;
40116;SDS011;25829;50.228;18.936;2022-10-04T19:12:24;24.43;;;12.57;;
40116;SDS011;25829;50.228;18.936;2022-10-04T19:18:49;22.37;;;10.77;;
40116;SDS011;25829;50.228;18.936;2022-10-04T19:22:00;20.97;;;10.17;;
40116;SDS011;25829;50.228;18.936;2022-10-04T19:25:56;14.13;;;8.23;;
40116;SDS011;25829;50.228;18.936;2022-10-04T19:28:34;10.43;;;7.20;;
40116;SDS011;25829;50.228;18.936;2022-10-04T19:31:41;14.30;;;7.87;;
40116;SDS011;25829;50.228;18.936;2022-10-04T19:41:24;18.63;;;11.10;;
40116;SDS011;25829;50.228;18.936;2022-10-04T19:47:57;15.33;;;11.13;;
40116;SDS011;25829;50.228;18.936;2022-10-04T19:51:05;19.47;;;12.10;;
40116;SDS011;25829;50.228;18.936;2022-10-04T19:54:25;18.17;;;11.93;;
40116;SDS011;25829;50.228;18.936;2022-10-04T19:57:35;27.93;;;14.20;;
40116;SDS011;25829;50.228;18.936;2022-10-04T20:00:37;22.63;;;14.60;;
40116;SDS011;25829;50.228;18.936;2022-10-04T20:03:38;24.70;;;15.13;;
40116;SDS011;25829;50.228;18.936;2022-10-04T20:06:50;23.77;;;13.87;;
40116;SDS011;25829;50.228;18.936;2022-10-04T20:13:21;19.40;;;11.97;;
40116;SDS011;25829;50.228;18.936;2022-10-04T20:19:57;21.07;;;12.27;;
40116;SDS011;25829;50.228;18.936;2022-10-04T20:22:58;22.60;;;13.27;;
40116;SDS011;25829;50.228;18.936;2022-10-04T20:25:59;20.80;;;11.77;;
40116;SDS011;25829;50.228;18.936;2022-10-04T20:29:00;21.97;;;12.93;;
40116;SDS011;25829;50.228;18.936;2022-10-04T20:32:04;20.73;;;13.30;;
40116;SDS011;25829;50.228;18.936;2022-10-04T20:35:08;19.47;;;12.83;;
40116;SDS011;25829;50.228;18.936;2022-10-04T20:38:13;22.33;;;14.43;;
40116;SDS011;25829;50.228;18.936;2022-10-04T20:44:46;18.87;;;13.53;;
40116;SDS011;25829;50.228;18.936;2022-10-04T20:48:01;19.07;;;11.93;;
40116;SDS011;25829;50.228;18.936;2022-10-04T20:51:12;19.67;;;12.50;;
40116;SDS011;25829;50.228;18.936;2022-10-04T20:54:18;23.37;;;13.77;;
40116;SDS011;25829;50.228;18.936;2022-10-04T20:57:21;19.73;;;12.23;;
40116;SDS011;25829;50.228;18.936;2022-10-04T21:00:23;24.83;;;14.03;;
40116;SDS011;25829;50.228;18.936;2022-10-04T21:03:26;20.93;;;11.73;;
40116;SDS011;25829;50.228;18.936;2022-10-04T21:06:29;19.03;;;11.37;;
40116;SDS011;25829;50.228;18.936;2022-10-04T21:09:30;19.57;;;11.60;;
40116;SDS011;25829;50.228;18.936;2022-10-04T21:15:34;17.70;;;10.90;;
40116;SDS011;25829;50.228;18.936;2022-10-04T21:18:34;17.87;;;10.93;;
40116;SDS011;25829;50.228;18.936;2022-10-04T21:21:48;21.47;;;11.20;;
40116;SDS011;25829;50.228;18.936;2022-10-04T21:27:50;15.60;;;9.77;;
40116;SDS011;25829;50.228;18.936;2022-10-04T21:30:50;16.17;;;10.10;;
40116;SDS011;25829;50.228;18.936;2022-10-04T21:33:51;13.60;;;9.30;;
40116;SDS011;25829;50.228;18.936;2022-10-04T21:36:52;17.00;;;10.50;;
40116;SDS011;25829;50.228;18.936;2022-10-04T21:39:53;20.70;;;11.10;;
40116;SDS011;25829;50.228;18.936;2022-10-04T21:42:54;22.23;;;12.80;;
40116;SDS011;25829;50.228;18.936;2022-10-04T21:45:55;20.53;;;13.30;;
40116;SDS011;25829;50.228;18.936;2022-10-04T21:48:56;18.33;;;13.30;;
40116;SDS011;25829;50.228;18.936;2022-10-04T21:51:56;29.57;;;15.67;;
40116;SDS011;25829;50.228;18.936;2022-10-04T21:54:57;28.10;;;16.53;;
40116;SDS011;25829;50.228;18.936;2022-10-04T21:57:58;26.10;;;15.97;;
40116;SDS011;25829;50.228;18.936;2022-10-04T22:00:58;25.93;;;16.37;;
40116;SDS011;25829;50.228;18.936;2022-10-04T22:03:59;32.03;;;18.27;;
40116;SDS011;25829;50.228;18.936;2022-10-04T22:07:00;28.17;;;17.03;;
40116;SDS011;25829;50.228;18.936;2022-10-04T22:10:01;31.23;;;19.10;;
40116;SDS011;25829;50.228;18.936;2022-10-04T22:13:01;34.57;;;17.03;;
40116;SDS011;25829;50.228;18.936;2022-10-04T22:16:02;30.73;;;17.73;;
40116;SDS011;25829;50.228;18.936;2022-10-04T22:19:04;32.50;;;18.17;;
40116;SDS011;25829;50.228;18.936;2022-10-04T22:22:05;27.00;;;17.10;;
40116;SDS011;25829;50.228;18.936;2022-10-04T22:25:15;29.27;;;18.13;;
40116;SDS011;25829;50.228;18.936;2022-10-04T22:28:22;28.63;;;17.20;;
40116;SDS011;25829;50.228;18.936;2022-10-04T22:31:26;34.30;;;18.27;;
40116;SDS011;25829;50.228;18.936;2022-10-04T22:34:29;33.20;;;19.23;;
40116;SDS011;25829;50.228;18.936;2022-10-04T22:37:30;29.80;;;17.67;;
40116;SDS011;25829;50.228;18.936;2022-10-04T22:40:31;23.90;;;16.37;;
40116;SDS011;25829;50.228;18.936;2022-10-04T22:43:32;26.53;;;16.37;;
40116;SDS011;25829;50.228;18.936;2022-10-04T22:46:35;31.47;;;17.53;;
40116;SDS011;25829;50.228;18.936;2022-10-04T22:49:38;26.10;;;15.30;;
40116;SDS011;25829;50.228;18.936;2022-10-04T22:52:45;24.27;;;16.07;;
40116;SDS011;25829;50.228;18.936;2022-10-04T22:55:47;27.43;;;16.10;;
40116;SDS011;25829;50.228;18.936;2022-10-04T22:58:51;29.87;;;13.27;;
40116;SDS011;25829;50.228;18.936;2022-10-04T23:01:53;27.70;;;14.50;;
40116;SDS011;25829;50.228;18.936;2022-10-04T23:04:54;26.47;;;14.20;;
40116;SDS011;25829;50.228;18.936;2022-10-04T23:07:59;26.77;;;16.30;;
40116;SDS011;25829;50.228;18.936;2022-10-04T23:11:00;31.53;;;18.33;;
40116;SDS011;25829;50.228;18.936;2022-10-04T23:14:00;39.67;;;19.03;;
40116;SDS011;25829;50.228;18.936;2022-10-04T23:17:02;33.03;;;17.73;;
40116;SDS011;25829;50.228;18.936;2022-10-04T23:20:27;33.13;;;18.13;;
40116;SDS011;25829;50.228;18.936;2022-10-04T23:23:29;29.27;;;17.63;;
40116;SDS011;25829;50.228;18.936;2022-10-04T23:26:35;32.60;;;17.83;;
40116;SDS011;25829;50.228;18.936;2022-10-04T23:29:40;35.27;;;17.73;;
40116;SDS011;25829;50.228;18.936;2022-10-04T23:32:42;34.63;;;17.13;;
40116;SDS011;25829;50.228;18.936;2022-10-04T23:35:44;29.97;;;16.77;;
40116;SDS011;25829;50.228;18.936;2022-10-04T23:38:48;28.67;;;17.30;;
40116;SDS011;25829;50.228;18.936;2022-10-04T23:41:53;28.17;;;17.37;;
40116;SDS011;25829;50.228;18.936;2022-10-04T23:44:55;30.37;;;16.27;;
40116;SDS011;25829;50.228;18.936;2022-10-04T23:47:58;30.13;;;17.70;;
40116;SDS011;25829;50.228;18.936;2022-10-04T23:51:00;29.90;;;17.23;;
40116;SDS011;25829;50.228;18.936;2022-10-04T23:54:08;29.67;;;18.57;;
40116;SDS011;25829;50.228;18.936;2022-10-04T23:57:21;26.23;;;17.00;;
